createdAt,value
2022-12-11T00:01:14.862Z,17.57
2022-12-11T00:03:41.951Z,15.77
2022-12-11T00:06:10.304Z,16.20
2022-12-11T00:08:37.326Z,16.83
2022-12-11T00:11:04.167Z,16.37
2022-12-11T00:13:30.837Z,16.20
2022-12-11T00:15:59.351Z,16.33
2022-12-11T00:18:26.067Z,17.83
2022-12-11T00:20:53.011Z,16.63
2022-12-11T00:23:19.822Z,18.47
2022-12-11T00:25:47.646Z,16.83
2022-12-11T00:28:16.483Z,16.73
2022-12-11T00:30:43.116Z,16.80
2022-12-11T00:33:11.871Z,16.03
2022-12-11T00:35:39.179Z,15.17
2022-12-11T00:38:05.729Z,16.47
2022-12-11T00:40:33.864Z,15.33
2022-12-11T00:43:00.758Z,15.97
2022-12-11T00:45:27.420Z,15.57
2022-12-11T00:47:54.017Z,14.87
2022-12-11T00:50:21.266Z,17.03
2022-12-11T00:52:47.898Z,14.73
2022-12-11T00:55:14.532Z,15.23
2022-12-11T00:57:41.093Z,15.87
2022-12-11T01:00:08.831Z,16.93
2022-12-11T01:02:35.491Z,16.37
2022-12-11T01:05:02.099Z,15.73
2022-12-11T01:07:29.364Z,16.00
2022-12-11T01:10:14.155Z,16.13
2022-12-11T01:12:40.721Z,17.93
2022-12-11T01:15:08.286Z,16.37
2022-12-11T01:17:35.124Z,15.87
2022-12-11T01:20:03.428Z,15.83
2022-12-11T01:22:30.940Z,14.37
2022-12-11T01:24:58.461Z,15.47
2022-12-11T01:27:25.270Z,16.57
2022-12-11T01:29:51.850Z,14.87
2022-12-11T01:32:18.621Z,16.50
2022-12-11T01:34:45.228Z,15.40
2022-12-11T01:37:11.900Z,15.27
2022-12-11T01:39:39.301Z,16.87
2022-12-11T01:42:09.631Z,16.67
2022-12-11T01:45:15.995Z,15.93
2022-12-11T01:47:43.776Z,16.57
2022-12-11T01:50:10.932Z,15.07
2022-12-11T01:52:37.714Z,16.20
2022-12-11T01:55:06.750Z,16.57
2022-12-11T01:57:33.522Z,16.00
2022-12-11T02:00:00.130Z,16.83
2022-12-11T02:02:29.696Z,17.73
2022-12-11T02:04:56.778Z,17.50
2022-12-11T02:07:23.738Z,17.17
2022-12-11T02:09:50.885Z,17.00
2022-12-11T02:12:24.442Z,17.60
2022-12-11T02:14:59.522Z,16.47
2022-12-11T02:17:33.870Z,16.17
2022-12-11T02:20:07.437Z,17.23
2022-12-11T02:23:12.289Z,16.20
2022-12-11T02:25:48.074Z,15.80
2022-12-11T02:28:19.399Z,17.03
2022-12-11T02:30:49.964Z,16.20
2022-12-11T02:33:19.968Z,15.13
2022-12-11T02:35:48.392Z,16.77
2022-12-11T02:38:18.843Z,16.90
2022-12-11T02:40:48.261Z,16.50
2022-12-11T02:43:18.174Z,16.93
2022-12-11T02:45:46.636Z,16.67
2022-12-11T02:48:15.051Z,16.27
2022-12-11T02:50:45.542Z,16.93
2022-12-11T02:53:16.253Z,16.07
2022-12-11T02:55:43.711Z,17.27
2022-12-11T02:58:15.866Z,16.73
2022-12-11T03:00:44.628Z,17.73
2022-12-11T03:03:11.651Z,16.33
2022-12-11T03:05:38.844Z,16.83
2022-12-11T03:08:05.947Z,17.80
2022-12-11T03:10:32.654Z,17.43
2022-12-11T03:13:00.862Z,17.30
2022-12-11T03:15:38.758Z,16.73
2022-12-11T03:18:11.441Z,17.93
2022-12-11T03:20:41.368Z,17.50
2022-12-11T03:23:17.821Z,16.90
2022-12-11T03:25:49.448Z,16.80
2022-12-11T03:28:19.266Z,17.70
2022-12-11T03:30:48.914Z,17.53
2022-12-11T03:33:23.361Z,19.27
2022-12-11T03:35:53.572Z,18.50
2022-12-11T03:38:25.671Z,17.33
2022-12-11T03:40:55.945Z,17.97
2022-12-11T03:43:22.738Z,18.53
2022-12-11T03:45:51.823Z,18.60
2022-12-11T03:48:20.829Z,18.17
2022-12-11T03:50:49.016Z,18.67
2022-12-11T03:53:16.462Z,18.13
2022-12-11T03:55:43.354Z,18.23
2022-12-11T03:58:10.016Z,18.13
2022-12-11T04:00:37.385Z,18.17
2022-12-11T04:03:13.967Z,18.73
2022-12-11T04:05:42.498Z,14.53
2022-12-11T04:08:09.535Z,14.10
2022-12-11T04:10:36.148Z,16.70
2022-12-11T04:13:03.001Z,16.90
2022-12-11T04:15:29.320Z,18.17
2022-12-11T04:18:14.181Z,17.27
2022-12-11T04:20:59.409Z,18.07
2022-12-11T04:23:43.973Z,17.43
2022-12-11T04:26:12.519Z,17.23
2022-12-11T04:28:39.758Z,18.87
2022-12-11T04:31:10.351Z,16.90
2022-12-11T04:33:37.032Z,18.00
2022-12-11T04:36:04.971Z,18.63
2022-12-11T04:38:31.951Z,15.90
2022-12-11T04:40:59.307Z,16.60
2022-12-11T04:43:27.013Z,18.20
2022-12-11T04:46:01.313Z,16.67
2022-12-11T04:48:28.357Z,15.90
2022-12-11T04:50:54.965Z,17.30
2022-12-11T04:53:22.372Z,18.17
2022-12-11T04:55:48.944Z,17.10
2022-12-11T04:58:15.555Z,17.63
2022-12-11T05:00:42.331Z,17.37
2022-12-11T05:03:09.244Z,18.00
2022-12-11T05:05:35.917Z,18.27
2022-12-11T05:08:02.634Z,17.50
2022-12-11T05:10:29.980Z,18.47
2022-12-11T05:12:56.640Z,17.30
2022-12-11T05:15:23.416Z,18.40
2022-12-11T05:17:50.008Z,19.20
2022-12-11T05:20:16.770Z,17.47
2022-12-11T05:22:43.376Z,17.33
2022-12-11T05:25:10.344Z,18.50
2022-12-11T05:27:37.941Z,18.23
2022-12-11T05:30:05.657Z,17.33
2022-12-11T05:32:32.278Z,16.43
2022-12-11T05:34:58.833Z,18.00
2022-12-11T05:37:25.458Z,17.33
2022-12-11T05:39:52.115Z,17.10
2022-12-11T05:42:20.869Z,18.90
2022-12-11T05:44:51.298Z,18.00
2022-12-11T05:47:19.578Z,18.57
2022-12-11T05:49:47.048Z,17.57
2022-12-11T05:52:13.700Z,17.37
2022-12-11T05:54:40.449Z,17.33
2022-12-11T05:57:07.140Z,17.43
2022-12-11T05:59:33.768Z,18.37
2022-12-11T06:02:01.126Z,17.10
2022-12-11T06:04:27.898Z,17.30
2022-12-11T06:06:54.760Z,17.00
2022-12-11T06:09:21.338Z,15.93
2022-12-11T06:11:47.961Z,16.53
2022-12-11T06:14:14.531Z,15.20
2022-12-11T06:16:41.153Z,15.40
2022-12-11T06:19:14.449Z,17.20
2022-12-11T06:21:41.379Z,13.07
2022-12-11T06:24:10.098Z,15.47
2022-12-11T06:26:36.744Z,16.27
2022-12-11T06:29:07.552Z,15.13
2022-12-11T06:31:35.727Z,14.17
2022-12-11T06:34:02.388Z,13.83
2022-12-11T06:36:29.639Z,16.37
2022-12-11T06:38:57.015Z,16.23
2022-12-11T06:41:23.615Z,15.17
2022-12-11T06:43:50.389Z,14.43
2022-12-11T06:46:18.981Z,15.80
2022-12-11T06:48:46.546Z,13.70
2022-12-11T06:51:15.300Z,15.27
2022-12-11T06:53:43.341Z,13.70
2022-12-11T06:56:11.544Z,13.03
2022-12-11T06:58:39.277Z,14.80
2022-12-11T07:01:14.866Z,12.90
2022-12-11T07:03:41.546Z,14.67
2022-12-11T07:06:08.301Z,13.93
2022-12-11T07:08:34.925Z,13.97
2022-12-11T07:11:06.516Z,13.90
2022-12-11T07:13:33.464Z,14.80
2022-12-11T07:16:01.114Z,14.23
2022-12-11T07:18:28.282Z,16.43
2022-12-11T07:20:57.068Z,16.03
2022-12-11T07:23:23.841Z,15.50
2022-12-11T07:25:50.445Z,16.43
2022-12-11T07:28:17.809Z,16.40
2022-12-11T07:30:44.397Z,15.17
2022-12-11T07:33:11.002Z,13.83
2022-12-11T07:35:38.044Z,15.47
2022-12-11T07:38:04.911Z,14.70
2022-12-11T07:40:33.032Z,14.63
2022-12-11T07:42:59.719Z,12.70
2022-12-11T07:45:29.135Z,13.47
2022-12-11T07:47:55.733Z,12.83
2022-12-11T07:50:22.725Z,13.37
2022-12-11T07:52:49.455Z,13.20
2022-12-11T07:55:16.298Z,12.40
2022-12-11T07:57:42.840Z,13.53
2022-12-11T08:00:11.022Z,12.80
2022-12-11T08:02:38.379Z,11.97
2022-12-11T08:05:05.938Z,13.37
2022-12-11T08:07:34.652Z,13.20
2022-12-11T08:10:01.406Z,12.33
2022-12-11T08:12:28.097Z,13.03
2022-12-11T08:14:54.786Z,12.30
2022-12-11T08:17:27.398Z,11.37
2022-12-11T08:19:57.058Z,13.37
2022-12-11T08:22:24.292Z,12.37
2022-12-11T08:24:59.523Z,12.27
2022-12-11T08:27:26.177Z,12.73
2022-12-11T08:29:52.801Z,12.77
2022-12-11T08:32:19.400Z,12.20
2022-12-11T08:34:46.046Z,11.93
2022-12-11T08:37:13.517Z,13.33
2022-12-11T08:39:40.235Z,12.53
2022-12-11T08:42:16.392Z,12.23
2022-12-11T08:44:44.133Z,12.40
2022-12-11T08:47:11.654Z,13.07
2022-12-11T08:49:38.967Z,12.47
2022-12-11T08:52:07.192Z,12.10
2022-12-11T08:54:36.554Z,12.17
2022-12-11T08:57:07.819Z,11.77
2022-12-11T08:59:35.512Z,11.97
2022-12-11T09:02:02.408Z,12.97
2022-12-11T09:04:29.868Z,11.90
2022-12-11T09:06:57.230Z,12.83
2022-12-11T09:09:24.737Z,10.47
2022-12-11T09:11:53.347Z,12.47
2022-12-11T09:14:20.770Z,12.17
2022-12-11T09:16:47.454Z,10.53
2022-12-11T09:19:14.897Z,9.53
2022-12-11T09:21:42.749Z,11.60
2022-12-11T09:24:10.647Z,12.50
2022-12-11T09:26:38.420Z,11.70
2022-12-11T09:29:06.385Z,12.67
2022-12-11T09:31:35.762Z,12.20
2022-12-11T09:34:04.700Z,13.00
2022-12-11T09:36:31.748Z,13.77
2022-12-11T09:39:00.789Z,12.20
2022-12-11T09:41:35.902Z,13.13
2022-12-11T09:44:14.553Z,13.47
2022-12-11T09:46:42.152Z,12.57
2022-12-11T09:49:17.272Z,12.87
2022-12-11T09:51:47.704Z,14.07
2022-12-11T09:54:15.162Z,14.57
2022-12-11T09:56:46.563Z,13.13
2022-12-11T09:59:23.549Z,13.57
2022-12-11T10:01:54.878Z,12.83
2022-12-11T10:04:39.952Z,11.60
2022-12-11T10:07:15.671Z,13.37
2022-12-11T10:09:50.045Z,13.03
2022-12-11T10:12:28.714Z,14.53
2022-12-11T10:15:18.641Z,14.10
2022-12-11T10:17:46.236Z,14.57
2022-12-11T10:20:22.484Z,13.70
2022-12-11T10:22:51.607Z,13.00
2022-12-11T10:25:22.345Z,13.83
2022-12-11T10:27:50.187Z,12.87
2022-12-11T10:30:19.929Z,11.23
2022-12-11T10:32:58.469Z,13.80
2022-12-11T10:35:32.588Z,12.40
2022-12-11T10:38:11.256Z,13.50
2022-12-11T10:40:40.179Z,12.97
2022-12-11T10:43:07.019Z,13.13
2022-12-11T10:45:34.468Z,15.37
2022-12-11T10:48:05.449Z,13.60
2022-12-11T10:50:32.961Z,12.60
2022-12-11T10:53:00.298Z,13.67
2022-12-11T10:55:30.606Z,12.37
2022-12-11T10:58:00.432Z,14.17
2022-12-11T11:00:33.034Z,23.23
2022-12-11T11:03:01.601Z,13.57
2022-12-11T11:05:31.717Z,14.23
2022-12-11T11:08:04.639Z,12.77
2022-12-11T11:10:31.453Z,13.83
2022-12-11T11:13:01.473Z,13.13
2022-12-11T11:15:30.148Z,13.97
2022-12-11T11:18:02.462Z,13.77
2022-12-11T11:20:33.707Z,13.07
2022-12-11T11:23:03.497Z,14.43
2022-12-11T11:25:32.405Z,13.27
2022-12-11T11:28:02.700Z,13.30
2022-12-11T11:30:31.806Z,14.07
2022-12-11T11:33:02.292Z,12.57
2022-12-11T11:35:31.304Z,14.20
2022-12-11T11:38:05.976Z,13.27
2022-12-11T11:40:36.807Z,13.27
2022-12-11T11:43:15.430Z,14.30
2022-12-11T11:45:46.791Z,14.43
2022-12-11T11:48:30.869Z,13.43
2022-12-11T11:50:58.724Z,12.43
2022-12-11T11:53:32.241Z,14.23
2022-12-11T11:56:05.766Z,14.10
2022-12-11T11:58:39.369Z,13.70
2022-12-11T12:01:13.630Z,13.93
2022-12-11T12:03:40.398Z,14.00
2022-12-11T12:06:15.869Z,14.90
2022-12-11T12:08:51.159Z,13.90
2022-12-11T12:11:27.548Z,13.80
2022-12-11T12:14:17.658Z,15.43
2022-12-11T12:17:01.274Z,14.07
2022-12-11T12:19:42.684Z,14.23
2022-12-11T12:22:27.359Z,14.43
2022-12-11T12:25:03.111Z,13.57
2022-12-11T12:30:23.243Z,13.30
2022-12-11T12:33:01.639Z,14.33
2022-12-11T12:35:35.356Z,13.23
2022-12-11T12:38:10.321Z,12.20
2022-12-11T12:40:45.173Z,11.53
2022-12-11T12:43:36.422Z,13.63
2022-12-11T12:46:11.209Z,11.10
2022-12-11T12:48:38.093Z,11.93
2022-12-11T12:51:05.925Z,16.23
2022-12-11T12:53:36.313Z,15.50
2022-12-11T12:56:04.912Z,34.17
2022-12-11T12:58:43.237Z,29.83
2022-12-11T13:01:16.478Z,15.20
2022-12-11T13:03:53.712Z,13.00
2022-12-11T13:06:33.614Z,14.63
2022-12-11T13:09:14.986Z,13.80
2022-12-11T13:11:41.991Z,14.27
2022-12-11T13:14:26.407Z,14.50
2022-12-11T13:17:03.868Z,13.93
2022-12-11T13:19:32.141Z,12.97
2022-12-11T13:22:03.442Z,13.97
2022-12-11T13:24:32.515Z,13.10
2022-12-11T13:27:09.498Z,14.80
2022-12-11T13:29:38.603Z,14.13
2022-12-11T13:32:23.016Z,12.80
2022-12-11T13:34:55.072Z,12.67
2022-12-11T13:37:27.133Z,15.90
2022-12-11T13:39:55.521Z,14.27
2022-12-11T13:42:27.793Z,14.60
2022-12-11T13:44:54.604Z,15.60
2022-12-11T13:47:21.616Z,15.17
2022-12-11T13:49:52.954Z,15.37
2022-12-11T13:52:25.057Z,15.67
2022-12-11T13:54:53.847Z,14.43
2022-12-11T13:57:25.005Z,14.13
2022-12-11T13:59:53.724Z,14.50
2022-12-11T14:02:25.250Z,15.30
2022-12-11T14:04:55.406Z,15.40
2022-12-11T14:07:26.617Z,14.13
2022-12-11T14:09:58.903Z,15.13
2022-12-11T14:12:28.407Z,14.90
2022-12-11T14:14:57.505Z,13.07
2022-12-11T14:17:25.906Z,15.90
2022-12-11T14:19:54.318Z,15.80
2022-12-11T14:22:22.837Z,14.73
2022-12-11T14:24:50.856Z,15.50
2022-12-11T14:27:18.342Z,17.43
2022-12-11T14:29:46.270Z,16.00
2022-12-11T14:32:19.515Z,17.53
2022-12-11T14:34:49.358Z,14.90
2022-12-11T14:37:17.729Z,15.70
2022-12-11T14:39:47.259Z,16.07
2022-12-11T14:42:18.060Z,15.00
2022-12-11T14:44:50.274Z,15.13
2022-12-11T14:47:20.535Z,15.90
2022-12-11T14:49:52.869Z,16.10
2022-12-11T14:52:23.441Z,15.87
2022-12-11T14:54:54.245Z,16.33
2022-12-11T14:57:26.338Z,16.40
2022-12-11T14:59:55.936Z,16.90
2022-12-11T15:02:27.010Z,20.73
2022-12-11T15:05:14.001Z,17.47
2022-12-11T15:07:42.859Z,17.20
2022-12-11T15:10:26.592Z,15.80
2022-12-11T15:12:54.132Z,16.03
2022-12-11T15:15:21.652Z,17.00
2022-12-11T15:17:52.912Z,16.53
2022-12-11T15:20:27.883Z,15.40
2022-12-11T15:22:57.417Z,16.40
2022-12-11T15:25:26.352Z,17.00
2022-12-11T15:27:54.853Z,17.30
2022-12-11T15:30:35.136Z,18.27
2022-12-11T15:33:21.351Z,19.97
2022-12-11T15:36:00.175Z,16.93
2022-12-11T15:38:34.610Z,16.23
2022-12-11T15:41:02.082Z,17.37
2022-12-11T15:43:31.428Z,18.10
2022-12-11T15:45:58.713Z,16.97
2022-12-11T15:48:25.510Z,15.63
2022-12-11T15:50:52.105Z,18.47
2022-12-11T15:53:19.005Z,15.53
2022-12-11T15:55:48.921Z,16.70
2022-12-11T15:58:20.115Z,16.67
2022-12-11T16:01:22.624Z,15.73
2022-12-11T16:07:37.248Z,15.63
2022-12-11T16:10:04.764Z,19.07
2022-12-11T16:12:31.713Z,16.10
2022-12-11T16:14:58.618Z,16.50
2022-12-11T16:17:25.259Z,16.90
2022-12-11T16:19:53.836Z,17.17
2022-12-11T16:22:23.326Z,18.37
2022-12-11T16:24:54.371Z,18.30
2022-12-11T16:27:23.234Z,17.10
2022-12-11T16:29:50.602Z,17.33
2022-12-11T16:32:20.491Z,16.30
2022-12-11T16:34:47.222Z,16.50
2022-12-11T16:37:16.871Z,16.23
2022-12-11T16:39:45.212Z,15.60
2022-12-11T16:42:12.498Z,17.13
2022-12-11T16:44:43.864Z,16.60
2022-12-11T16:47:10.847Z,15.73
2022-12-11T16:49:37.599Z,15.17
2022-12-11T16:52:04.513Z,16.50
2022-12-11T16:54:31.188Z,17.90
2022-12-11T16:56:57.821Z,13.33
2022-12-11T16:59:25.145Z,17.30
2022-12-11T17:01:51.800Z,17.97
2022-12-11T17:04:18.449Z,17.03
2022-12-11T17:06:45.594Z,15.03
2022-12-11T17:09:12.330Z,16.00
2022-12-11T17:11:39.359Z,17.27
2022-12-11T17:14:06.003Z,17.13
2022-12-11T17:16:33.408Z,19.80
2022-12-11T17:19:00.353Z,16.67
2022-12-11T17:21:27.957Z,17.73
2022-12-11T17:23:54.702Z,17.33
2022-12-11T17:26:21.375Z,18.20
2022-12-11T17:28:47.960Z,17.77
2022-12-11T17:31:15.957Z,17.73
2022-12-11T17:33:45.762Z,15.97
2022-12-11T17:36:14.074Z,17.70
2022-12-11T17:38:40.858Z,16.87
2022-12-11T17:41:08.560Z,17.77
2022-12-11T17:43:35.322Z,18.67
2022-12-11T17:46:02.584Z,15.80
2022-12-11T17:48:29.650Z,18.10
2022-12-11T17:50:57.606Z,17.67
2022-12-11T17:53:25.637Z,17.43
2022-12-11T17:55:52.436Z,16.23
2022-12-11T17:58:21.429Z,19.47
2022-12-11T18:00:50.278Z,18.60
2022-12-11T18:03:18.068Z,18.77
2022-12-11T18:05:46.901Z,19.70
2022-12-11T18:08:15.013Z,18.77
2022-12-11T18:10:41.987Z,18.73
2022-12-11T18:13:08.963Z,19.63
2022-12-11T18:15:35.990Z,17.47
2022-12-11T18:18:03.069Z,18.30
2022-12-11T18:20:31.591Z,18.23
2022-12-11T18:22:58.410Z,19.00
2022-12-11T18:25:25.991Z,16.43
2022-12-11T18:27:56.676Z,19.93
2022-12-11T18:30:24.414Z,21.50
2022-12-11T18:32:51.772Z,18.63
2022-12-11T18:35:18.964Z,19.87
2022-12-11T18:37:45.574Z,20.50
2022-12-11T18:40:12.405Z,19.40
2022-12-11T18:42:39.671Z,19.80
2022-12-11T18:45:07.335Z,18.80
2022-12-11T18:47:33.983Z,19.47
2022-12-11T18:50:07.124Z,19.07
2022-12-11T18:52:34.247Z,19.90
2022-12-11T18:55:00.887Z,19.07
2022-12-11T18:57:27.629Z,17.90
2022-12-11T18:59:54.956Z,17.73
2022-12-11T19:02:22.409Z,17.77
2022-12-11T19:04:49.160Z,18.00
2022-12-11T19:07:15.725Z,17.07
2022-12-11T19:09:47.593Z,17.43
2022-12-11T19:12:15.182Z,16.90
2022-12-11T19:14:41.884Z,18.23
2022-12-11T19:17:09.294Z,17.50
2022-12-11T19:19:36.284Z,18.67
2022-12-11T19:22:03.428Z,18.90
2022-12-11T19:24:30.506Z,20.37
2022-12-11T19:26:57.629Z,17.63
2022-12-11T19:29:27.400Z,17.17
2022-12-11T19:31:54.934Z,13.87
2022-12-11T19:34:22.894Z,18.13
2022-12-11T19:36:50.109Z,18.27
2022-12-11T19:39:17.844Z,17.70
2022-12-11T19:41:44.676Z,17.07
2022-12-11T19:44:11.548Z,17.03
2022-12-11T19:46:38.895Z,19.27
2022-12-11T19:49:06.291Z,18.00
2022-12-11T19:51:37.629Z,18.20
2022-12-11T19:54:08.374Z,18.63
2022-12-11T19:56:36.054Z,19.03
2022-12-11T19:59:04.426Z,17.07
2022-12-11T20:01:33.646Z,19.90
2022-12-11T20:04:03.153Z,19.20
2022-12-11T20:06:31.898Z,18.40
2022-12-11T20:08:59.801Z,17.53
2022-12-11T20:11:26.852Z,18.63
2022-12-11T20:13:54.929Z,18.00
2022-12-11T20:16:39.083Z,20.37
2022-12-11T20:19:08.861Z,18.50
2022-12-11T20:21:36.244Z,17.87
2022-12-11T20:24:04.242Z,19.03
2022-12-11T20:26:31.963Z,18.93
2022-12-11T20:28:58.941Z,18.53
2022-12-11T20:31:26.154Z,14.57
2022-12-11T20:33:55.479Z,16.37
2022-12-11T20:36:23.798Z,19.27
2022-12-11T20:38:50.911Z,17.53
2022-12-11T20:41:21.230Z,19.70
2022-12-11T20:43:48.678Z,18.53
2022-12-11T20:46:17.366Z,17.67
2022-12-11T20:48:45.286Z,18.87
2022-12-11T20:51:14.380Z,19.60
2022-12-11T20:53:42.083Z,19.00
2022-12-11T20:56:10.414Z,19.67
2022-12-11T20:58:38.452Z,18.77
2022-12-11T21:01:05.757Z,18.07
2022-12-11T21:03:38.923Z,18.77
2022-12-11T21:06:09.547Z,18.80
2022-12-11T21:08:36.386Z,19.70
2022-12-11T21:11:05.992Z,18.47
2022-12-11T21:13:33.323Z,19.07
2022-12-11T21:16:05.553Z,21.20
2022-12-11T21:18:32.258Z,20.33
2022-12-11T21:20:59.380Z,19.93
2022-12-11T21:23:26.346Z,21.53
2022-12-11T21:25:53.597Z,21.30
2022-12-11T21:28:22.563Z,22.73
2022-12-11T21:30:49.429Z,22.77
2022-12-11T21:33:17.254Z,22.23
2022-12-11T21:35:44.033Z,21.37
2022-12-11T21:38:10.663Z,18.00
2022-12-11T21:40:37.390Z,20.73
2022-12-11T21:43:04.331Z,21.03
2022-12-11T21:48:23.747Z,21.47
2022-12-11T21:50:51.528Z,20.20
2022-12-11T21:53:18.461Z,21.10
2022-12-11T21:55:45.518Z,20.00
2022-12-11T21:58:17.520Z,21.40
2022-12-11T22:00:46.016Z,21.70
2022-12-11T22:03:12.698Z,20.67
2022-12-11T22:05:40.072Z,20.50
2022-12-11T22:08:07.459Z,20.47
2022-12-11T22:10:35.179Z,21.87
2022-12-11T22:13:01.808Z,21.73
2022-12-11T22:15:28.759Z,20.50
2022-12-11T22:17:55.448Z,22.50
2022-12-11T22:20:22.111Z,23.20
2022-12-11T22:22:49.380Z,22.07
2022-12-11T22:25:17.528Z,21.37
2022-12-11T22:27:44.219Z,21.43
2022-12-11T22:30:13.815Z,22.40
2022-12-11T22:32:40.817Z,23.00
2022-12-11T22:35:08.099Z,23.30
2022-12-11T22:37:34.754Z,22.73
2022-12-11T22:40:02.228Z,22.37
2022-12-11T22:42:28.884Z,21.70
2022-12-11T22:44:55.694Z,24.33
2022-12-11T22:47:23.643Z,23.60
2022-12-11T22:49:50.286Z,22.17
2022-12-11T22:52:21.299Z,23.17
2022-12-11T22:54:48.076Z,23.23
2022-12-11T22:57:15.562Z,22.13
2022-12-11T22:59:42.389Z,23.03
2022-12-11T23:02:09.253Z,23.43
2022-12-11T23:04:36.623Z,21.20
2022-12-11T23:07:04.004Z,20.70
2022-12-11T23:09:30.877Z,21.90
2022-12-11T23:11:58.093Z,22.20
2022-12-11T23:14:25.696Z,23.03
2022-12-11T23:16:53.112Z,22.47
2022-12-11T23:19:32.345Z,21.23
2022-12-11T23:21:59.823Z,21.33
2022-12-11T23:24:26.993Z,23.17
2022-12-11T23:26:54.380Z,23.13
2022-12-11T23:29:21.456Z,20.50
2022-12-11T23:31:48.810Z,22.43
2022-12-11T23:34:15.693Z,21.20
2022-12-11T23:36:42.409Z,20.90
2022-12-11T23:39:09.598Z,21.60
2022-12-11T23:41:36.722Z,22.33
2022-12-11T23:44:03.603Z,19.40
2022-12-11T23:46:30.345Z,21.73
2022-12-11T23:48:57.853Z,22.73
2022-12-11T23:51:25.656Z,24.27
2022-12-11T23:53:52.852Z,21.63
2022-12-11T23:56:21.663Z,22.03
2022-12-11T23:58:48.639Z,21.00
